Time;durP1;ratioP1;P1;durP2;ratioP2;P2;SDS_P1;SDS_P2;PMS_P1;PMS_P2;Temp;Humidity;BMP_temperature;BMP_pressure;BME280_temperature;BME280_humidity;BME280_pressure;Samples;Min_cycle;Max_cycle;Signal;HPM_P1;HPM_P2
2022/01/04 00:02:06;;;;;;;57.17;36.05;;;6.30;99.90;;;;;;5030901;28;20037;-75
2022/01/04 00:04:33;;;;;;;59.42;35.78;;;6.20;99.90;;;;;;5029111;28;20053;-74
2022/01/04 00:07:00;;;;;;;47.88;31.65;;;6.30;99.90;;;;;;5031951;28;20085;-77
2022/01/04 00:09:28;;;;;;;55.75;33.67;;;6.00;99.90;;;;;;5031428;28;20112;-77
2022/01/04 00:14:23;;;;;;;62.95;39.20;;;6.20;99.90;;;;;;5030666;28;20469;-77
2022/01/04 00:16:54;;;;;;;45.10;28.70;;;6.00;99.90;;;;;;5030289;28;20439;-74
2022/01/04 00:19:23;;;;;;;39.63;27.40;;;5.80;99.90;;;;;;5031299;28;20045;-78
2022/01/04 00:21:50;;;;;;;42.75;26.30;;;5.50;99.90;;;;;;5031379;28;20408;-75
2022/01/04 00:24:17;;;;;;;40.47;26.15;;;5.30;99.90;;;;;;5030636;28;20445;-75
2022/01/04 00:26:45;;;;;;;40.92;25.10;;;5.40;99.90;;;;;;5030262;28;20513;-76
2022/01/04 00:29:15;;;;;;;44.00;27.48;;;5.30;99.90;;;;;;5030941;28;20049;-78
2022/01/04 00:31:42;;;;;;;49.85;28.55;;;5.30;99.90;;;;;;5014288;28;20500;-79
2022/01/04 00:34:09;;;;;;;49.03;29.23;;;5.20;99.90;;;;;;5031724;28;20045;-77
2022/01/04 00:36:37;;;;;;;43.80;28.33;;;5.10;99.90;;;;;;5032302;28;20502;-76
2022/01/04 00:39:04;;;;;;;51.17;30.77;;;5.10;99.90;;;;;;5031583;28;20041;-76
2022/01/04 00:41:31;;;;;;;45.33;30.20;;;5.30;99.90;;;;;;5030448;28;20057;-76
2022/01/04 00:43:59;;;;;;;45.58;29.25;;;5.30;99.90;;;;;;5031611;28;20037;-78
2022/01/04 00:46:26;;;;;;;52.60;29.77;;;5.40;99.90;;;;;;5031401;28;20404;-76
2022/01/04 00:49:12;;;;;;;49.78;30.55;;;5.50;99.90;;;;;;5031462;28;20712;-76
2022/01/04 00:51:47;;;;;;;49.78;28.38;;;5.50;99.90;;;;;;5031937;28;20039;-75
2022/01/04 00:54:16;;;;;;;42.50;28.75;;;5.60;99.90;;;;;;5031888;28;20392;-76
2022/01/04 00:56:45;;;;;;;45.22;29.92;;;5.70;99.90;;;;;;5031332;28;20116;-77
2022/01/04 00:59:13;;;;;;;50.80;30.73;;;5.80;99.90;;;;;;5031217;28;20051;-76
2022/01/04 01:01:41;;;;;;;48.15;30.83;;;5.80;99.90;;;;;;5030424;28;20124;-78
2022/01/04 01:04:09;;;;;;;65.28;40.13;;;5.80;99.90;;;;;;5031345;28;20516;-76
2022/01/04 01:06:37;;;;;;;85.28;49.60;;;5.60;99.90;;;;;;5030119;28;20480;-78
2022/01/04 01:09:04;;;;;;;120.38;67.78;;;5.60;99.90;;;;;;5031157;28;20698;-78
2022/01/04 01:11:32;;;;;;;116.55;67.00;;;5.40;99.90;;;;;;5030456;28;20054;-77
2022/01/04 01:13:59;;;;;;;129.00;73.60;;;5.40;99.90;;;;;;5030914;28;20461;-77
2022/01/04 01:16:26;;;;;;;123.20;73.28;;;5.40;99.90;;;;;;5030184;28;20118;-76
2022/01/04 01:18:54;;;;;;;140.05;76.72;;;5.40;99.90;;;;;;5031299;28;20041;-77
2022/01/04 01:21:21;;;;;;;137.57;76.75;;;5.30;99.90;;;;;;5031718;28;20041;-76
2022/01/04 01:23:49;;;;;;;133.48;77.15;;;5.10;99.90;;;;;;5013842;28;20038;-77
2022/01/04 01:26:16;;;;;;;130.25;75.20;;;4.90;99.90;;;;;;5031188;28;20042;-76
2022/01/04 01:28:44;;;;;;;121.82;75.00;;;5.00;99.90;;;;;;5030826;28;20180;-80
2022/01/04 01:31:11;;;;;;;125.32;73.93;;;5.10;99.90;;;;;;5031355;28;20060;-76
2022/01/04 01:33:39;;;;;;;125.68;73.18;;;5.00;99.90;;;;;;5030832;28;20049;-79
2022/01/04 01:36:07;;;;;;;128.52;70.85;;;5.10;99.90;;;;;;5030775;28;20037;-77
2022/01/04 01:38:34;;;;;;;120.38;70.70;;;5.10;99.90;;;;;;5031015;28;20034;-79
2022/01/04 01:41:01;;;;;;;124.78;71.63;;;5.20;99.90;;;;;;5029967;28;20041;-78
2022/01/04 01:43:29;;;;;;;120.90;71.15;;;4.90;99.90;;;;;;5030800;28;20048;-78
2022/01/04 01:45:57;;;;;;;113.88;69.95;;;5.00;99.90;;;;;;5029673;28;20053;-76
2022/01/04 01:48:25;;;;;;;126.57;71.03;;;4.80;99.90;;;;;;5030908;28;20041;-76
2022/01/04 01:50:53;;;;;;;113.13;64.18;;;4.90;99.90;;;;;;5041570;28;20048;-76
2022/01/04 01:53:22;;;;;;;106.43;62.10;;;4.70;99.90;;;;;;5054233;28;20037;-78
2022/01/04 01:55:49;;;;;;;107.75;61.55;;;4.50;99.90;;;;;;5055024;28;20250;-77
2022/01/04 01:58:16;;;;;;;107.25;61.28;;;4.70;99.90;;;;;;5053397;28;20047;-75
2022/01/04 02:00:44;;;;;;;98.60;59.03;;;4.70;99.90;;;;;;5053722;28;20132;-78
2022/01/04 02:03:11;;;;;;;109.30;60.22;;;4.70;99.90;;;;;;5037005;28;20053;-79
2022/01/04 02:05:39;;;;;;;93.97;55.38;;;4.60;99.90;;;;;;5036253;28;20098;-78
2022/01/04 02:08:08;;;;;;;82.75;51.75;;;4.50;99.90;;;;;;5053017;28;20503;-77
2022/01/04 02:10:38;;;;;;;85.82;52.05;;;4.50;99.90;;;;;;5037226;28;20076;-80
2022/01/04 02:13:06;;;;;;;84.35;51.50;;;4.50;99.90;;;;;;5052912;28;20048;-79
2022/01/04 02:15:34;;;;;;;78.50;46.97;;;4.20;99.90;;;;;;5036581;28;20049;-78
2022/01/04 02:18:03;;;;;;;77.55;47.53;;;4.40;99.90;;;;;;5053227;28;20037;-79
2022/01/04 02:20:32;;;;;;;77.68;44.08;;;4.30;99.90;;;;;;5036789;28;20087;-80
2022/01/04 02:23:01;;;;;;;69.93;44.65;;;4.20;99.90;;;;;;5052733;28;20041;-79
2022/01/04 02:25:29;;;;;;;75.05;42.63;;;3.90;99.90;;;;;;5036623;28;20076;-79
2022/01/04 02:27:56;;;;;;;70.03;41.58;;;3.80;99.90;;;;;;5052821;28;20404;-82
2022/01/04 02:30:24;;;;;;;64.82;41.05;;;3.90;99.90;;;;;;5052767;28;20041;-80
2022/01/04 02:32:53;;;;;;;65.28;39.53;;;4.00;99.90;;;;;;5053917;28;20110;-79
2022/01/04 02:35:27;;;;;;;73.07;43.38;;;4.20;99.90;;;;;;5035950;28;20048;-81
2022/01/04 02:38:05;;;;;;;76.50;43.67;;;4.20;99.90;;;;;;5052608;28;20044;-79
2022/01/04 02:40:33;;;;;;;77.30;45.40;;;4.20;99.90;;;;;;5052661;28;20073;-82
2022/01/04 02:43:04;;;;;;;76.20;47.35;;;4.40;99.90;;;;;;5052482;28;20041;-78
2022/01/04 02:45:33;;;;;;;86.93;50.15;;;4.40;99.90;;;;;;5052175;28;20045;-79
2022/01/04 02:48:01;;;;;;;87.20;50.75;;;4.40;99.90;;;;;;5052781;28;20144;-78
2022/01/04 02:50:28;;;;;;;80.88;50.00;;;4.30;99.90;;;;;;5030582;28;20049;-78
2022/01/04 02:52:56;;;;;;;87.72;51.25;;;4.30;99.90;;;;;;5032500;28;20046;-79
2022/01/04 02:55:23;;;;;;;85.97;51.08;;;4.20;99.90;;;;;;5016131;28;20049;-79
2022/01/04 02:57:51;;;;;;;81.28;49.90;;;4.30;99.90;;;;;;5032247;28;20132;-76
2022/01/04 03:00:19;;;;;;;79.25;47.90;;;4.20;99.90;;;;;;5032032;28;20120;-76
2022/01/04 03:02:46;;;;;;;85.22;49.42;;;4.40;99.90;;;;;;5033465;28;20408;-76
2022/01/04 03:05:14;;;;;;;84.28;49.25;;;4.30;99.90;;;;;;5033204;28;20080;-79
2022/01/04 03:07:41;;;;;;;78.43;48.20;;;4.30;99.90;;;;;;5015625;28;20478;-75
2022/01/04 03:10:09;;;;;;;77.65;47.30;;;4.30;99.90;;;;;;5032017;28;20033;-76
2022/01/04 03:12:39;;;;;;;79.55;47.50;;;4.40;99.90;;;;;;5033019;28;20045;-75
2022/01/04 03:15:07;;;;;;;69.95;45.80;;;4.40;99.90;;;;;;5033043;28;20071;-76
2022/01/04 03:17:34;;;;;;;73.55;45.50;;;4.40;99.90;;;;;;5033116;28;20099;-76
2022/01/04 03:20:03;;;;;;;72.32;44.00;;;4.50;99.90;;;;;;5033209;28;20111;-77
2022/01/04 03:22:30;;;;;;;71.72;45.70;;;4.50;99.90;;;;;;5031629;28;20768;-77
2022/01/04 03:24:58;;;;;;;80.53;45.15;;;4.40;99.90;;;;;;5033079;28;20066;-76
2022/01/04 03:27:25;;;;;;;70.55;45.17;;;4.50;99.90;;;;;;5033065;28;20041;-77
2022/01/04 03:29:53;;;;;;;76.60;45.88;;;4.50;99.90;;;;;;5031478;28;20111;-78
2022/01/04 03:32:20;;;;;;;73.88;43.38;;;4.30;99.90;;;;;;5032854;28;20041;-77
2022/01/04 03:34:47;;;;;;;73.72;44.92;;;4.40;99.90;;;;;;5031828;28;20037;-77
2022/01/04 03:37:14;;;;;;;72.53;43.90;;;4.40;99.90;;;;;;5015352;28;20520;-77
2022/01/04 03:39:42;;;;;;;74.65;43.90;;;4.40;99.90;;;;;;5032850;28;20381;-77
2022/01/04 03:42:09;;;;;;;71.97;44.00;;;4.30;99.90;;;;;;5032592;28;20419;-76
2022/01/04 03:44:36;;;;;;;71.22;45.25;;;4.40;99.90;;;;;;5031304;28;20052;-78
2022/01/04 03:47:04;;;;;;;75.43;43.28;;;4.20;99.90;;;;;;5031444;28;20049;-75
2022/01/04 03:49:32;;;;;;;64.47;40.63;;;3.90;99.90;;;;;;5031464;28;20057;-76
2022/01/04 03:52:00;;;;;;;66.43;42.30;;;3.90;99.90;;;;;;5048333;28;20076;-75
2022/01/04 03:54:27;;;;;;;68.15;42.20;;;4.10;99.90;;;;;;5052053;28;20388;-77
2022/01/04 03:56:54;;;;;;;66.93;40.97;;;4.30;99.90;;;;;;5052382;28;20044;-75
2022/01/04 03:59:22;;;;;;;71.07;41.13;;;4.10;99.90;;;;;;5051976;28;20049;-76
2022/01/04 04:01:49;;;;;;;68.25;41.08;;;4.20;99.90;;;;;;5052106;28;20381;-75
2022/01/04 04:04:19;;;;;;;65.00;40.42;;;4.10;99.90;;;;;;5052174;28;20098;-76
2022/01/04 04:06:47;;;;;;;64.43;39.88;;;4.10;99.90;;;;;;5050823;28;20119;-77
2022/01/04 04:09:14;;;;;;;71.25;41.58;;;4.10;99.90;;;;;;5052182;28;20391;-76
2022/01/04 04:11:41;;;;;;;65.85;42.55;;;4.10;99.90;;;;;;5051725;28;20140;-76
2022/01/04 04:14:09;;;;;;;65.47;39.40;;;4.10;99.90;;;;;;5051484;28;20423;-75
2022/01/04 04:16:36;;;;;;;62.80;40.85;;;4.10;99.90;;;;;;5052011;28;20391;-77
2022/01/04 04:19:03;;;;;;;76.90;43.10;;;4.20;99.90;;;;;;5051710;28;20600;-74
2022/01/04 04:21:32;;;;;;;67.82;42.88;;;4.10;99.90;;;;;;5051026;28;20420;-79
2022/01/04 04:24:21;;;;;;;67.28;41.72;;;4.20;99.90;;;;;;5050646;28;20136;-78
2022/01/04 04:26:48;;;;;;;67.97;40.95;;;4.20;99.90;;;;;;5051169;28;20049;-76
2022/01/04 04:29:16;;;;;;;56.42;38.22;;;4.30;99.90;;;;;;5050398;28;20087;-76
2022/01/04 04:31:43;;;;;;;60.10;39.28;;;4.30;99.90;;;;;;5051846;28;20056;-76
2022/01/04 04:34:10;;;;;;;63.95;39.22;;;4.40;99.90;;;;;;5051589;28;20045;-76
2022/01/04 04:36:38;;;;;;;67.97;38.33;;;4.30;99.90;;;;;;5051609;28;20124;-75
2022/01/04 04:39:05;;;;;;;62.78;38.17;;;4.20;99.90;;;;;;5051243;28;20047;-74
2022/01/04 04:41:33;;;;;;;60.88;38.17;;;4.20;99.90;;;;;;5051479;28;20496;-75
2022/01/04 04:44:00;;;;;;;62.78;38.20;;;4.10;99.90;;;;;;5050297;28;20083;-76
2022/01/04 04:46:27;;;;;;;59.97;38.40;;;4.20;99.90;;;;;;5051957;28;20137;-77
2022/01/04 04:48:55;;;;;;;62.58;36.80;;;4.10;99.90;;;;;;5051330;28;20149;-75
2022/01/04 04:51:22;;;;;;;65.15;37.58;;;4.10;99.90;;;;;;5042717;28;20064;-74
2022/01/04 04:53:49;;;;;;;60.40;37.35;;;4.10;99.90;;;;;;5030131;28;20084;-78
2022/01/04 04:56:17;;;;;;;68.65;39.95;;;4.30;99.90;;;;;;5030324;28;20124;-77
2022/01/04 04:58:44;;;;;;;64.10;40.15;;;4.30;99.90;;;;;;5030077;28;20041;-77
2022/01/04 05:01:11;;;;;;;67.88;39.75;;;4.10;99.90;;;;;;5031761;28;20046;-75
2022/01/04 05:03:39;;;;;;;67.30;41.47;;;4.10;99.90;;;;;;5031401;28;20049;-76
2022/01/04 05:06:06;;;;;;;75.35;42.30;;;4.00;99.90;;;;;;5030213;28;20108;-76
2022/01/04 05:08:33;;;;;;;69.60;41.70;;;3.90;99.90;;;;;;5030274;28;20048;-76
2022/01/04 05:11:02;;;;;;;70.13;39.53;;;4.00;99.90;;;;;;5031154;28;20037;-76
2022/01/04 05:13:29;;;;;;;65.72;40.35;;;3.90;99.90;;;;;;5030043;28;20042;-74
2022/01/04 05:15:57;;;;;;;69.57;41.63;;;3.90;99.90;;;;;;5031660;28;20045;-76
2022/01/04 05:18:36;;;;;;;64.70;42.50;;;3.80;99.90;;;;;;5031195;28;20041;-77
2022/01/04 05:21:03;;;;;;;66.75;39.08;;;3.70;99.90;;;;;;5013619;28;20037;-77
2022/01/04 05:23:32;;;;;;;64.18;39.78;;;4.00;99.90;;;;;;5031104;28;20143;-77
2022/01/04 05:25:59;;;;;;;75.10;44.47;;;4.00;99.90;;;;;;5030252;28;20049;-78
2022/01/04 05:28:26;;;;;;;71.40;43.83;;;4.10;99.90;;;;;;5034907;28;20428;-75
2022/01/04 05:30:53;;;;;;;74.78;45.05;;;4.10;99.90;;;;;;5033945;28;20464;-76
2022/01/04 05:33:21;;;;;;;69.00;42.55;;;4.10;99.90;;;;;;5035361;28;20124;-79
2022/01/04 05:35:48;;;;;;;69.45;41.35;;;3.90;99.90;;;;;;5034059;28;20468;-79
2022/01/04 05:38:16;;;;;;;69.53;42.80;;;4.00;99.90;;;;;;5033479;28;20042;-78
2022/01/04 05:40:43;;;;;;;67.32;42.78;;;4.10;99.90;;;;;;5034032;28;20111;-77
2022/01/04 05:43:10;;;;;;;66.13;39.20;;;4.10;99.90;;;;;;5034928;28;20049;-77
2022/01/04 05:45:38;;;;;;;74.32;44.65;;;4.00;99.90;;;;;;5033767;28;20049;-76
2022/01/04 05:48:05;;;;;;;75.88;44.03;;;4.00;99.90;;;;;;5033923;28;20053;-75
2022/01/04 05:50:34;;;;;;;73.72;44.92;;;3.80;99.90;;;;;;5035145;28;20051;-75
2022/01/04 05:53:01;;;;;;;86.55;48.15;;;3.80;99.90;;;;;;5053245;28;20395;-78
2022/01/04 05:55:29;;;;;;;93.95;50.55;;;3.80;99.90;;;;;;5054777;28;20124;-80
2022/01/04 05:57:56;;;;;;;81.70;49.13;;;3.80;99.90;;;;;;5053110;28;20128;-76
2022/01/04 06:00:23;;;;;;;81.95;51.72;;;3.80;99.90;;;;;;5054806;28;20041;-78
2022/01/04 06:02:50;;;;;;;80.28;50.15;;;3.70;99.90;;;;;;5053447;28;20044;-78
2022/01/04 06:05:18;;;;;;;84.60;50.33;;;3.60;99.90;;;;;;5054456;28;20057;-78
2022/01/04 06:07:45;;;;;;;91.22;52.45;;;3.60;99.90;;;;;;5052833;28;20045;-77
2022/01/04 06:10:14;;;;;;;91.40;53.25;;;3.70;99.90;;;;;;5054050;28;20048;-74
2022/01/04 06:15:11;;;;;;;91.82;51.30;;;3.50;99.90;;;;;;5054438;28;20041;-76
2022/01/04 06:17:41;;;;;;;85.05;52.08;;;3.50;99.90;;;;;;5053906;28;20072;-75
2022/01/04 06:20:11;;;;;;;83.55;51.17;;;3.30;99.90;;;;;;5053985;28;20399;-75
2022/01/04 06:22:39;;;;;;;79.15;50.80;;;3.70;99.90;;;;;;5045730;28;20076;-73
2022/01/04 06:25:11;;;;;;;79.10;49.45;;;3.50;99.90;;;;;;5028156;28;20398;-76
2022/01/04 06:27:41;;;;;;;106.80;56.97;;;3.40;99.90;;;;;;5012791;28;20133;-78
2022/01/04 06:30:09;;;;;;;88.40;50.97;;;3.50;99.90;;;;;;4996953;28;20045;-76
2022/01/04 06:32:37;;;;;;;72.60;46.05;;;3.50;99.90;;;;;;5014181;28;20520;-78
2022/01/04 06:35:04;;;;;;;84.45;47.10;;;3.20;99.90;;;;;;5014089;28;20042;-74
2022/01/04 06:37:32;;;;;;;85.53;48.35;;;3.10;99.90;;;;;;5013233;28;20091;-79
2022/01/04 06:40:00;;;;;;;80.82;49.67;;;3.10;99.90;;;;;;5013169;28;20076;-76
2022/01/04 06:42:27;;;;;;;92.93;53.40;;;3.20;99.90;;;;;;5012586;28;20049;-72
2022/01/04 06:44:54;;;;;;;88.80;51.42;;;3.10;99.90;;;;;;5014408;28;20489;-74
2022/01/04 06:47:22;;;;;;;89.13;50.58;;;3.10;99.90;;;;;;5013976;28;20054;-72
2022/01/04 06:49:49;;;;;;;83.47;49.83;;;3.10;99.90;;;;;;5013672;28;20048;-73
2022/01/04 06:52:16;;;;;;;80.90;48.25;;;2.90;99.90;;;;;;5039359;28;20420;-71
2022/01/04 06:54:44;;;;;;;88.68;51.25;;;3.10;99.90;;;;;;5053649;28;20037;-75
2022/01/04 06:57:15;;;;;;;100.22;54.03;;;3.20;99.90;;;;;;5052128;28;20048;-75
2022/01/04 06:59:43;;;;;;;101.88;57.13;;;3.70;99.90;;;;;;5053339;28;20072;-75
2022/01/04 07:02:11;;;;;;;79.43;47.50;;;3.20;99.90;;;;;;5052100;28;20037;-76
2022/01/04 07:04:38;;;;;;;69.07;44.53;;;2.90;99.90;;;;;;5053084;28;20071;-75
2022/01/04 07:07:06;;;;;;;70.40;41.00;;;2.90;99.90;;;;;;5051892;28;20404;-73
2022/01/04 07:09:33;;;;;;;58.97;37.78;;;2.90;99.90;;;;;;5052113;28;20045;-74
2022/01/04 07:12:01;;;;;;;59.47;37.97;;;3.00;99.90;;;;;;5052924;28;20052;-74
2022/01/04 07:14:28;;;;;;;56.08;36.33;;;3.10;99.90;;;;;;5053198;28;20048;-75
2022/01/04 07:16:55;;;;;;;58.65;36.35;;;3.20;99.90;;;;;;5049500;28;20049;-73
2022/01/04 07:19:23;;;;;;;57.28;36.88;;;3.40;99.90;;;;;;5032602;28;20056;-73
2022/01/04 07:21:51;;;;;;;54.85;37.15;;;3.30;99.90;;;;;;5033031;28;20516;-73
2022/01/04 07:24:18;;;;;;;62.67;37.78;;;3.30;99.90;;;;;;5032968;28;20113;-73
2022/01/04 07:26:45;;;;;;;62.72;37.05;;;3.30;99.90;;;;;;5031888;28;20251;-74
2022/01/04 07:29:12;;;;;;;62.42;37.40;;;3.20;99.90;;;;;;5032847;28;20042;-74
2022/01/04 07:31:40;;;;;;;53.38;34.25;;;3.10;99.90;;;;;;5032757;28;20067;-75
2022/01/04 07:34:07;;;;;;;50.70;32.67;;;3.30;99.90;;;;;;5032638;28;20504;-74
2022/01/04 07:36:34;;;;;;;53.60;31.67;;;3.30;99.90;;;;;;5031629;28;20497;-73
2022/01/04 07:39:02;;;;;;;58.95;33.72;;;3.30;99.90;;;;;;5030794;28;20056;-74
2022/01/04 07:41:29;;;;;;;49.80;32.20;;;3.10;99.90;;;;;;5029543;28;20822;-75
2022/01/04 07:43:57;;;;;;;53.85;33.63;;;3.40;99.90;;;;;;5029606;28;20443;-76
2022/01/04 07:46:25;;;;;;;55.88;32.95;;;3.70;99.90;;;;;;5029796;28;20408;-75
2022/01/04 07:48:52;;;;;;;45.90;30.48;;;4.00;99.90;;;;;;5029990;28;20238;-75
2022/01/04 07:51:20;;;;;;;48.97;32.00;;;4.20;99.90;;;;;;5033664;28;20041;-75
2022/01/04 07:53:47;;;;;;;46.58;29.85;;;4.50;99.90;;;;;;5051311;28;20041;-74
2022/01/04 07:56:14;;;;;;;45.58;30.70;;;4.50;99.90;;;;;;5052236;28;20053;-75
2022/01/04 07:58:42;;;;;;;54.72;35.72;;;4.70;99.90;;;;;;5052120;28;20400;-75
2022/01/04 08:01:09;;;;;;;55.63;35.50;;;4.70;99.90;;;;;;5052482;28;20400;-75
2022/01/04 08:03:36;;;;;;;53.67;34.10;;;4.70;99.90;;;;;;5051939;28;20588;-75
2022/01/04 08:06:04;;;;;;;60.78;34.78;;;4.70;99.90;;;;;;5050926;28;20385;-74
2022/01/04 08:08:31;;;;;;;52.58;31.92;;;4.70;99.90;;;;;;5051827;28;20041;-74
2022/01/04 08:10:58;;;;;;;49.90;33.40;;;4.90;99.90;;;;;;5052195;28;20425;-75
2022/01/04 08:13:29;;;;;;;51.00;32.13;;;5.20;99.90;;;;;;5050833;28;20409;-74
2022/01/04 08:15:56;;;;;;;49.03;33.60;;;5.30;99.90;;;;;;5050632;28;20033;-75
2022/01/04 08:18:24;;;;;;;51.28;34.55;;;5.20;99.90;;;;;;5051763;28;20056;-73
2022/01/04 08:20:56;;;;;;;55.78;34.08;;;5.30;99.90;;;;;;5052558;28;20037;-73
2022/01/04 08:23:24;;;;;;;52.25;36.80;;;5.30;99.90;;;;;;5034443;28;20089;-75
2022/01/04 08:25:52;;;;;;;51.15;34.88;;;5.30;99.90;;;;;;5034503;28;20076;-75
2022/01/04 08:28:19;;;;;;;55.58;37.13;;;5.50;99.90;;;;;;5050509;28;20033;-71
2022/01/04 08:30:46;;;;;;;52.55;36.03;;;5.60;99.90;;;;;;5029081;28;20081;-75
2022/01/04 08:33:14;;;;;;;59.28;37.30;;;5.50;99.90;;;;;;5030875;28;20056;-74
2022/01/04 08:35:41;;;;;;;59.38;36.15;;;5.80;99.90;;;;;;5031820;28;20412;-73
2022/01/04 08:38:09;;;;;;;56.53;38.15;;;5.60;99.90;;;;;;5028824;28;20046;-74
2022/01/04 08:40:37;;;;;;;56.65;37.17;;;6.00;99.90;;;;;;5031171;28;20036;-75
2022/01/04 08:43:05;;;;;;;55.65;37.25;;;6.30;99.90;;;;;;5030133;28;20438;-76
2022/01/04 08:45:34;;;;;;;61.78;39.85;;;6.60;99.90;;;;;;5029476;28;20057;-74
2022/01/04 08:48:02;;;;;;;58.33;39.55;;;6.70;99.90;;;;;;5011185;28;20386;-77
2022/01/04 08:50:30;;;;;;;53.70;38.00;;;6.80;99.90;;;;;;5031155;28;20124;-75
2022/01/04 08:52:57;;;;;;;57.00;38.15;;;6.90;99.90;;;;;;5033358;28;20033;-75
2022/01/04 08:55:25;;;;;;;58.45;38.05;;;7.00;99.90;;;;;;5013637;28;20045;-73
2022/01/04 08:57:52;;;;;;;59.38;37.20;;;7.10;99.90;;;;;;5027113;28;20202;-76
2022/01/04 09:00:20;;;;;;;57.55;38.45;;;7.40;99.90;;;;;;5030523;28;20121;-74
2022/01/04 09:02:48;;;;;;;54.95;39.08;;;7.60;99.90;;;;;;5030920;28;20034;-74
2022/01/04 09:05:15;;;;;;;64.35;38.72;;;7.50;99.90;;;;;;5014003;28;20452;-73
2022/01/04 09:07:43;;;;;;;59.42;39.47;;;7.20;99.90;;;;;;5032640;28;20072;-74
2022/01/04 09:10:10;;;;;;;59.80;40.53;;;7.40;99.90;;;;;;5032824;28;20411;-75
2022/01/04 09:13:05;;;;;;;56.30;39.03;;;7.70;99.90;;;;;;5032925;28;20033;-76
2022/01/04 09:15:55;;;;;;;55.03;37.88;;;7.90;99.90;;;;;;5049736;28;20055;-75
2022/01/04 09:21:28;;;;;;;61.42;41.95;;;8.40;99.90;;;;;;5051440;28;20041;-75
2022/01/04 09:23:59;;;;;;;66.22;42.90;;;8.50;99.90;;;;;;5068058;28;20041;-77
2022/01/04 09:26:28;;;;;;;63.72;41.15;;;8.20;99.90;;;;;;5070840;28;20040;-75
2022/01/04 09:28:55;;;;;;;61.63;40.42;;;8.30;99.90;;;;;;5068225;28;20044;-73
2022/01/04 09:31:25;;;;;;;59.50;40.88;;;8.40;99.90;;;;;;5052563;28;20433;-74
2022/01/04 09:33:54;;;;;;;55.35;39.78;;;8.70;99.90;;;;;;5067694;28;20118;-75
2022/01/04 09:36:37;;;;;;;64.88;40.45;;;8.90;99.90;;;;;;5071073;28;20840;-75
2022/01/04 09:39:09;;;;;;;62.25;42.28;;;9.30;99.90;;;;;;5052244;28;20086;-75
2022/01/04 09:41:37;;;;;;;59.15;41.33;;;9.30;99.90;;;;;;5070413;28;20040;-75
2022/01/04 09:44:05;;;;;;;57.72;39.83;;;9.30;99.90;;;;;;5036296;28;20056;-75
2022/01/04 09:46:33;;;;;;;61.70;39.17;;;9.30;99.90;;;;;;5067996;28;20036;-73
2022/01/04 09:49:01;;;;;;;54.67;39.20;;;9.30;99.90;;;;;;5070333;28;20041;-75
2022/01/04 09:51:30;;;;;;;55.67;38.53;;;9.50;99.90;;;;;;5052339;28;20128;-73
2022/01/04 09:53:57;;;;;;;51.25;37.30;;;9.60;99.90;;;;;;5069327;28;20045;-76
2022/01/04 09:56:25;;;;;;;54.88;38.15;;;9.50;99.90;;;;;;5069158;28;20416;-73
2022/01/04 09:58:52;;;;;;;53.78;36.08;;;9.20;99.90;;;;;;5069241;28;20086;-75
2022/01/04 10:01:27;;;;;;;56.97;37.15;;;9.10;99.90;;;;;;5068460;28;20458;-75
2022/01/04 10:04:15;;;;;;;55.92;37.15;;;9.20;99.90;;;;;;5068980;28;20045;-74
2022/01/04 10:06:57;;;;;;;49.80;33.13;;;9.40;99.90;;;;;;5066513;28;20048;-72
2022/01/04 10:09:54;;;;;;;44.45;31.77;;;9.70;99.90;;;;;;5068968;28;20105;-73
2022/01/04 10:12:22;;;;;;;44.60;32.10;;;9.50;99.90;;;;;;5049101;28;20044;-77
2022/01/04 10:14:51;;;;;;;52.65;35.47;;;9.20;99.90;;;;;;5072596;28;20128;-75
2022/01/04 10:17:27;;;;;;;56.95;39.60;;;9.30;99.90;;;;;;5053129;28;20123;-77
2022/01/04 10:19:58;;;;;;;77.75;49.42;;;9.60;99.90;;;;;;5038129;28;20121;-75
2022/01/04 10:22:34;;;;;;;;;;;9.70;99.90;;;;;;5072889;28;20151;-73
2022/01/04 10:25:02;;;;;;;81.07;48.90;;;9.80;99.90;;;;;;5052840;28;19920;-72
2022/01/04 10:27:47;;;;;;;75.18;48.28;;;9.90;99.90;;;;;;5054908;28;20138;-74
2022/01/04 10:30:34;;;;;;;54.17;38.92;;;10.10;99.90;;;;;;5073442;28;20119;-77
2022/01/04 10:33:14;;;;;;;67.55;45.08;;;10.00;99.90;;;;;;5087624;28;20032;-74
2022/01/04 10:35:47;;;;;;;60.90;41.35;;;10.30;99.90;;;;;;5054350;28;20560;-73
2022/01/04 10:38:28;;;;;;;56.08;39.47;;;10.50;99.90;;;;;;5070931;28;20029;-77
2022/01/04 10:41:00;;;;;;;49.80;35.63;;;10.50;99.90;;;;;;5054053;28;20044;-77
2022/01/04 10:43:36;;;;;;;47.13;33.30;;;11.00;99.90;;;;;;5051870;28;20032;-77
2022/01/04 10:46:04;;;;;;;43.75;32.17;;;11.00;99.90;;;;;;5072642;28;20086;-77
2022/01/04 10:48:44;;;;;;;43.88;29.33;;;11.00;99.90;;;;;;5071644;28;20040;-75
2022/01/04 10:51:14;;;;;;;42.55;26.60;;;11.40;99.90;;;;;;5071664;28;20103;-75
2022/01/04 10:53:57;;;;;;;34.35;23.15;;;11.40;99.90;;;;;;5075613;28;20048;-75
2022/01/04 10:56:31;;;;;;;31.63;23.75;;;11.30;99.90;;;;;;5054176;28;20044;-84
2022/01/04 10:59:05;;;;;;;36.97;24.50;;;11.40;99.90;;;;;;5071866;28;20048;-79
2022/01/04 11:01:45;;;;;;;35.60;27.15;;;11.90;99.90;;;;;;5037724;28;20086;-79
2022/01/04 11:04:18;;;;;;;36.73;27.70;;;11.80;99.90;;;;;;5053116;28;20040;-77
2022/01/04 11:06:47;;;;;;;36.50;27.30;;;11.60;99.90;;;;;;5069723;28;20052;-77
2022/01/04 11:09:16;;;;;;;38.60;26.65;;;11.70;99.90;;;;;;5071495;28;20075;-76
2022/01/04 11:11:43;;;;;;;40.13;28.25;;;12.20;99.90;;;;;;5069350;28;20033;-76
2022/01/04 11:14:13;;;;;;;40.50;29.17;;;12.60;99.90;;;;;;5072110;28;20036;-75
2022/01/04 11:16:41;;;;;;;38.90;30.00;;;13.10;99.90;;;;;;5053929;28;20115;-76
2022/01/04 11:19:09;;;;;;;39.45;29.38;;;12.70;99.90;;;;;;5054425;28;20395;-80
2022/01/04 11:21:41;;;;;;;37.70;29.30;;;12.40;99.90;;;;;;5072784;28;20384;-79
2022/01/04 11:24:12;;;;;;;38.22;26.95;;;13.00;99.90;;;;;;5054058;28;20132;-80
2022/01/04 11:26:42;;;;;;;36.92;27.17;;;12.90;99.90;;;;;;5051688;28;20043;-80
2022/01/04 11:29:10;;;;;;;34.97;27.80;;;13.40;99.90;;;;;;5054525;28;20040;-84
2022/01/04 11:31:45;;;;;;;34.90;26.45;;;13.90;99.30;;;;;;5054361;28;20399;-78
2022/01/04 11:34:24;;;;;;;38.88;27.15;;;15.10;99.90;;;;;;5071377;28;20051;-83
2022/01/04 11:36:51;;;;;;;40.88;29.33;;;15.20;97.80;;;;;;5072340;28;20086;-83
2022/01/04 11:39:41;;;;;;;39.42;30.13;;;15.30;97.10;;;;;;5063061;28;20052;-76
2022/01/04 11:42:13;;;;;;;44.72;32.58;;;15.40;96.10;;;;;;5069224;28;20037;-78
2022/01/04 11:44:47;;;;;;;41.80;31.90;;;15.30;95.20;;;;;;5071972;28;20040;-76
2022/01/04 11:47:26;;;;;;;35.63;27.80;;;15.10;94.80;;;;;;5072588;28;20461;-78
2022/01/04 11:50:07;;;;;;;38.28;27.42;;;14.50;95.00;;;;;;5071484;28;20047;-76
2022/01/04 11:52:43;;;;;;;34.72;25.98;;;14.60;97.70;;;;;;5070915;28;20107;-75
2022/01/04 11:55:22;;;;;;;34.47;24.85;;;15.00;97.20;;;;;;5071009;28;20048;-78
2022/01/04 11:57:55;;;;;;;34.53;24.58;;;15.40;96.00;;;;;;5070026;28;20036;-76
2022/01/04 12:00:31;;;;;;;38.92;25.02;;;15.90;93.30;;;;;;5070760;28;20058;-76
2022/01/04 12:03:15;;;;;;;32.85;23.50;;;15.60;93.50;;;;;;5068659;28;20043;-76
2022/01/04 12:05:55;;;;;;;39.95;24.42;;;15.60;94.20;;;;;;5033316;28;20053;-76
2022/01/04 12:08:25;;;;;;;36.65;24.85;;;15.80;92.20;;;;;;5071797;28;20068;-76
2022/01/04 12:10:54;;;;;;;34.50;24.30;;;15.90;92.40;;;;;;5072144;28;20132;-75
2022/01/04 12:13:23;;;;;;;35.50;24.33;;;16.00;91.70;;;;;;5037217;28;20135;-75
2022/01/04 12:15:57;;;;;;;34.00;25.48;;;16.10;91.90;;;;;;5071965;28;20040;-72
2022/01/04 12:18:37;;;;;;;35.67;25.08;;;16.00;91.40;;;;;;5054199;28;20402;-77
2022/01/04 12:21:20;;;;;;;37.13;25.08;;;16.30;91.60;;;;;;5071763;28;20075;-74
2022/01/04 12:23:48;;;;;;;34.50;24.23;;;16.00;91.10;;;;;;5071618;28;20111;-74
2022/01/04 12:26:32;;;;;;;34.45;23.23;;;15.90;91.00;;;;;;5071578;28;20048;-77
2022/01/04 12:29:02;;;;;;;34.45;21.95;;;16.10;90.90;;;;;;5071718;28;20044;-80
2022/01/04 12:31:35;;;;;;;30.98;22.90;;;16.20;89.60;;;;;;5053804;28;20054;-75
2022/01/04 12:34:06;;;;;;;33.22;23.13;;;15.80;90.00;;;;;;5071554;28;20040;-74
2022/01/04 12:36:42;;;;;;;31.70;22.50;;;15.60;90.60;;;;;;5071174;28;20432;-75
2022/01/04 12:39:15;;;;;;;33.95;23.23;;;15.10;91.50;;;;;;5053538;28;20052;-72
2022/01/04 12:41:44;;;;;;;31.40;22.25;;;14.80;92.10;;;;;;5053705;28;20040;-72
2022/01/04 12:44:21;;;;;;;33.83;22.83;;;14.70;92.90;;;;;;5071457;28;20037;-74
2022/01/04 12:46:49;;;;;;;31.98;23.15;;;14.60;93.60;;;;;;5070842;28;20712;-75
2022/01/04 12:49:19;;;;;;;31.30;22.75;;;14.30;94.20;;;;;;5067476;28;20384;-73
2022/01/04 12:51:53;;;;;;;32.17;22.52;;;14.10;95.20;;;;;;5052454;28;20049;-74
2022/01/04 12:54:24;;;;;;;31.70;22.65;;;14.00;95.80;;;;;;5053377;28;20038;-73
2022/01/04 12:56:51;;;;;;;;;;;13.90;96.90;;;;;;5053690;28;20049;-74